Time;durP1;ratioP1;P1;durP2;ratioP2;P2;SDS_P1;SDS_P2;PMS_P1;PMS_P2;Temp;Humidity;BMP_temperature;BMP_pressure;BME280_temperature;BME280_humidity;BME280_pressure;Samples;Min_cycle;Max_cycle;Signal;HPM_P1;HPM_P2
2021/10/28 00:12:58;;;;;;;;;7.67;7.67;;;;;19.15;49.55;101612.88;5057670;28;45395;-61
2021/10/28 00:15:36;;;;;;;;;8.33;8.33;;;;;19.15;49.78;101601.31;5057350;28;47477;-62
2021/10/28 00:20:29;;;;;;;;;11.33;7.67;;;;;19.14;49.59;101594.19;5057575;28;45306;-61
2021/10/28 00:22:55;;;;;;;;;9.67;8.00;;;;;19.14;49.79;101594.19;5057751;28;45321;-62
2021/10/28 00:25:21;;;;;;;;;9.00;7.00;;;;;19.14;49.66;101586.19;5057443;28;47074;-61
2021/10/28 00:27:46;;;;;;;;;7.00;7.00;;;;;19.14;49.59;101587.06;5057116;28;45317;-60
2021/10/28 00:30:12;;;;;;;;;12.67;8.00;;;;;19.14;49.98;101594.19;5057556;28;45438;-60
2021/10/28 00:32:37;;;;;;;;;7.00;7.00;;;;;19.13;49.51;101582.63;5057416;28;45341;-61
2021/10/28 00:35:03;;;;;;;;;8.67;6.67;;;;;19.15;49.65;101580.00;5057041;28;46200;-61
2021/10/28 00:37:29;;;;;;;;;8.67;8.33;;;;;19.14;49.64;101572.88;5057037;28;45285;-63
2021/10/28 00:39:54;;;;;;;;;9.67;8.33;;;;;19.14;49.80;101564.88;5057106;28;45291;-60
2021/10/28 00:42:20;;;;;;;;;11.67;8.00;;;;;19.14;49.64;101571.06;5057420;28;45551;-61
2021/10/28 00:44:46;;;;;;;;;8.00;7.33;;;;;19.13;49.75;101569.31;5056986;28;47133;-61
2021/10/28 00:47:12;;;;;;;;;11.33;8.67;;;;;19.15;49.48;101564.00;5056925;28;45329;-65
2021/10/28 00:49:37;;;;;;;;;7.67;7.67;;;;;19.14;49.66;101564.88;5057261;28;45418;-64
2021/10/28 00:52:03;;;;;;;;;10.33;7.00;;;;;19.15;49.73;101564.00;5057407;28;45196;-66
2021/10/28 00:54:29;;;;;;;;;9.33;7.00;;;;;19.14;49.63;101559.53;5057086;28;47768;-61
2021/10/28 00:56:55;;;;;;;;;5.00;5.00;;;;;19.15;49.56;101559.56;5056802;28;45374;-61
2021/10/28 00:59:21;;;;;;;;;8.00;7.33;;;;;19.13;49.65;101553.31;5056902;28;45375;-62
2021/10/28 01:01:47;;;;;;;;;8.67;7.00;;;;;19.14;49.72;101559.53;5056998;28;45369;-63
2021/10/28 01:04:13;;;;;;;;;9.00;8.00;;;;;19.13;49.71;101555.97;5056530;28;46366;-61
2021/10/28 01:06:40;;;;;;;;;7.00;7.00;;;;;19.14;49.62;101551.56;5056806;28;45295;-61
2021/10/28 01:09:07;;;;;;;;;9.00;9.00;;;;;19.14;49.63;101548.88;5057003;28;45274;-66
2021/10/28 01:11:33;;;;;;;;;8.00;8.00;;;;;19.13;49.66;101542.66;5056671;28;45416;-60
2021/10/28 01:13:59;;;;;;;;;10.33;8.00;;;;;19.14;49.62;101538.22;5056500;28;47492;-62
2021/10/28 01:16:26;;;;;;;;;7.67;6.00;;;;;19.14;49.57;101540.88;5056508;27;45454;-60
2021/10/28 01:18:52;;;;;;;;;9.00;8.00;;;;;19.13;49.68;101539.09;5056554;28;45555;-62
2021/10/28 01:21:18;;;;;;;;;9.00;7.67;;;;;19.13;49.79;101541.78;5056665;28;45378;-62
2021/10/28 01:23:46;;;;;;;;;8.00;8.00;;;;;19.13;49.67;101540.00;5056714;28;46101;-61
2021/10/28 01:26:13;;;;;;;;;8.33;8.00;;;;;19.12;49.60;101535.53;5056521;28;45180;-60
2021/10/28 01:28:49;;;;;;;;;8.00;7.67;;;;;19.13;49.58;101525.78;5056532;28;45314;-61
2021/10/28 01:31:15;;;;;;;;;9.33;9.33;;;;;19.13;49.39;101528.44;5056505;28;45415;-60
2021/10/28 01:33:40;;;;;;;;;9.00;7.33;;;;;19.13;49.40;101525.78;5056143;28;46113;-63
2021/10/28 01:36:07;;;;;;;;;7.33;6.67;;;;;19.12;49.57;101522.22;5056448;28;45425;-62
2021/10/28 01:38:35;;;;;;;;;8.33;7.67;;;;;19.13;49.51;101517.78;5056779;28;45306;-62
2021/10/28 01:41:02;;;;;;;;;8.33;6.67;;;;;19.12;49.47;101513.38;5056485;28;45242;-65
2021/10/28 01:43:30;;;;;;;;;6.67;6.00;;;;;19.13;49.70;101517.78;5056158;28;46214;-65
2021/10/28 01:45:55;;;;;;;;;7.33;7.00;;;;;19.14;49.41;101514.25;5056294;28;45814;-62
2021/10/28 01:48:22;;;;;;;;;6.00;6.00;;;;;19.13;49.47;101512.44;5056347;28;45503;-67
2021/10/28 01:50:48;;;;;;;;;8.00;6.67;;;;;19.13;49.41;101512.44;5059693;28;45252;-62
2021/10/28 01:53:15;;;;;;;;;10.00;8.00;;;;;19.12;49.66;101511.56;5059610;28;46191;-60
2021/10/28 01:55:41;;;;;;;;;7.67;6.67;;;;;19.13;49.51;101512.44;5059624;28;45177;-62
2021/10/28 01:58:08;;;;;;;;;7.33;7.33;;;;;19.13;49.54;101513.34;5059820;28;45386;-62
2021/10/28 02:00:34;;;;;;;;;8.00;6.33;;;;;19.12;49.70;101508.91;5059822;28;45410;-65
2021/10/28 02:03:00;;;;;;;;;6.00;6.00;;;;;19.13;49.52;101501.78;5059605;28;46342;-61
2021/10/28 02:05:25;;;;;;;;;5.67;5.00;;;;;19.13;49.65;101501.78;5059505;28;45441;-60
2021/10/28 02:07:51;;;;;;;;;7.00;7.00;;;;;19.12;49.42;101498.25;5059663;28;45370;-65
2021/10/28 02:10:18;;;;;;;;;8.33;7.00;;;;;19.12;49.71;101498.25;5059666;28;45445;-60
2021/10/28 02:12:48;;;;;;;;;6.33;6.33;;;;;19.12;49.55;101494.72;5059300;28;47206;-61
2021/10/28 02:15:16;;;;;;;;;6.67;6.67;;;;;19.12;49.45;101494.72;5059486;28;45287;-62
2021/10/28 02:17:42;;;;;;;;;7.00;7.00;;;;;19.13;49.74;101493.78;5059447;28;45322;-61
2021/10/28 02:20:11;;;;;;;;;6.67;6.67;;;;;19.12;49.66;101492.91;5059511;28;45464;-62
2021/10/28 02:22:37;;;;;;;;;6.67;6.67;;;;;19.13;49.58;101480.47;5059426;28;46224;-68
2021/10/28 02:25:05;;;;;;;;;7.00;6.00;;;;;19.10;49.51;101476.94;5059137;28;45374;-62
2021/10/28 02:27:31;;;;;;;;;8.33;7.00;;;;;19.11;49.57;101480.50;5059127;27;45256;-60
2021/10/28 02:29:57;;;;;;;;;6.67;6.67;;;;;19.10;49.43;101471.59;5059645;28;45448;-60
2021/10/28 02:32:23;;;;;;;;;8.33;8.00;;;;;19.10;49.43;101471.59;5059002;28;47035;-61
2021/10/28 02:34:48;;;;;;;;;8.00;8.00;;;;;19.10;49.61;101460.06;5059032;28;45272;-61
2021/10/28 02:37:14;;;;;;;;;5.67;5.67;;;;;19.09;49.59;101453.88;5059359;28;45278;-61
2021/10/28 02:39:40;;;;;;;;;8.00;6.67;;;;;19.09;49.44;101448.53;5059687;28;45260;-62
2021/10/28 02:42:06;;;;;;;;;9.33;6.33;;;;;19.10;49.63;101452.94;5058935;28;47104;-64
2021/10/28 02:44:31;;;;;;;;;6.33;5.00;;;;;19.10;49.41;101441.41;5058874;28;45409;-61
2021/10/28 02:46:57;;;;;;;;;6.33;5.67;;;;;19.10;49.49;101452.06;5059186;28;45231;-66
2021/10/28 02:49:23;;;;;;;;;5.67;5.67;;;;;19.09;49.50;101447.63;5059326;28;45486;-65
2021/10/28 02:51:49;;;;;;;;;8.33;6.33;;;;;19.09;49.62;101440.53;5059010;28;46023;-64
2021/10/28 02:54:15;;;;;;;;;6.33;6.33;;;;;19.08;49.33;101441.41;5058967;28;45363;-61
2021/10/28 02:56:41;;;;;;;;;8.67;6.67;;;;;19.09;49.54;101439.66;5058832;28;45407;-61
2021/10/28 02:59:06;;;;;;;;;6.00;6.00;;;;;19.09;49.48;101437.88;5058925;28;45375;-64
2021/10/28 03:01:31;;;;;;;;;7.00;6.67;;;;;19.09;49.51;101445.88;5058112;28;45328;-60
2021/10/28 03:03:57;;;;;;;;;7.67;7.33;;;;;19.09;49.53;101442.31;5058854;28;45487;-60
2021/10/28 03:06:22;;;;;;;;;7.67;6.33;;;;;19.07;49.54;101434.34;5058861;28;45394;-62
2021/10/28 03:08:49;;;;;;;;;8.67;7.67;;;;;19.07;49.45;101437.00;5058923;28;45459;-63
2021/10/28 03:11:15;;;;;;;;;6.67;6.67;;;;;19.07;49.61;101426.34;5058541;28;46245;-60
2021/10/28 03:13:41;;;;;;;;;7.33;7.33;;;;;19.08;49.36;101435.19;5058300;28;45796;-62
2021/10/28 03:16:23;;;;;;;;;9.33;8.33;;;;;19.08;49.17;101433.44;5058529;28;45458;-60
2021/10/28 03:27:01;;;;;;;;;7.33;7.00;;;;;19.05;49.44;101420.13;5058652;28;45357;-62
2021/10/28 03:29:27;;;;;;;;;6.33;6.33;;;;;19.06;49.33;101419.22;5058731;28;45415;-61
2021/10/28 03:31:52;;;;;;;;;6.00;6.00;;;;;19.06;49.45;101421.88;5057851;28;46266;-61
2021/10/28 03:34:19;;;;;;;;;7.33;6.33;;;;;19.06;49.27;101419.22;5057977;28;45399;-65
2021/10/28 03:37:07;;;;;;;;;10.00;7.00;;;;;19.06;49.59;101411.22;5058177;28;45231;-62
2021/10/28 04:29:05;;;;;;;;;6.67;6.67;;;;;19.04;49.34;101393.47;5034995;28;45449;-60
2021/10/28 04:31:33;;;;;;;;;7.67;7.67;;;;;19.03;49.42;101389.97;5035357;28;45317;-62
2021/10/28 04:34:01;;;;;;;;;6.00;5.00;;;;;19.04;49.22;101391.72;5034525;28;46497;-61
2021/10/28 04:36:30;;;;;;;;;8.33;7.00;;;;;19.05;49.24;101397.94;5035103;28;45493;-64
2021/10/28 04:38:57;;;;;;;;;7.00;6.00;;;;;19.05;49.09;101393.50;5035103;28;45562;-62
2021/10/28 04:41:22;;;;;;;;;8.00;7.00;;;;;19.04;49.40;101386.38;5035130;28;45536;-61
2021/10/28 04:43:47;;;;;;;;;9.33;7.00;;;;;19.04;49.27;101388.16;5034498;28;46913;-62
2021/10/28 04:46:13;;;;;;;;;10.00;8.00;;;;;19.03;49.25;101392.63;5036021;28;45269;-61
2021/10/28 04:48:38;;;;;;;;;5.67;5.67;;;;;19.04;49.15;101390.81;5057238;28;45491;-60
2021/10/28 04:51:04;;;;;;;;;7.00;7.00;;;;;19.04;49.26;101386.38;5057366;28;45216;-63
2021/10/28 04:53:29;;;;;;;;;8.67;8.00;;;;;19.04;49.29;101382.81;5057198;28;46427;-61
2021/10/28 04:55:55;;;;;;;;;10.00;7.33;;;;;19.05;49.07;101389.94;5056853;28;45395;-61
2021/10/28 04:58:21;;;;;;;;;6.33;6.33;;;;;19.04;49.32;101385.50;5057043;28;45457;-62
2021/10/28 05:00:46;;;;;;;;;10.00;7.00;;;;;19.04;49.07;101396.16;5056893;28;45303;-60
2021/10/28 05:03:12;;;;;;;;;6.67;6.67;;;;;19.04;49.40;101391.72;5056671;28;47221;-62
2021/10/28 05:05:37;;;;;;;;;7.33;7.33;;;;;19.02;49.28;101385.50;5056789;28;45361;-62
2021/10/28 05:08:02;;;;;;;;;11.33;9.00;;;;;19.04;49.33;101385.50;5056987;28;45386;-66
2021/10/28 05:10:32;;;;;;;;;11.00;8.33;;;;;19.04;48.99;101389.03;5057104;28;45465;-61
2021/10/28 05:12:57;;;;;;;;;11.00;7.00;;;;;19.02;49.26;101388.16;5056951;28;46162;-63
2021/10/28 05:15:23;;;;;;;;;7.33;7.33;;;;;19.03;49.23;101389.97;5056515;28;45310;-61
2021/10/28 05:17:48;;;;;;;;;7.33;7.33;;;;;19.04;48.98;101382.81;5056687;28;45452;-64
2021/10/28 05:20:14;;;;;;;;;9.33;6.67;;;;;19.02;49.24;101382.84;5056714;28;45416;-63
2021/10/28 05:22:40;;;;;;;;;8.00;7.67;;;;;19.03;48.93;101376.63;5056572;28;46355;-61
2021/10/28 05:25:05;;;;;;;;;7.33;7.00;;;;;19.04;49.22;101385.50;5056581;28;45376;-62
2021/10/28 05:27:31;;;;;;;;;10.33;9.67;;;;;19.04;49.11;101386.38;5056833;28;45454;-60
2021/10/28 05:29:56;;;;;;;;;6.00;6.00;;;;;19.03;49.00;101381.97;5056922;28;45389;-63
2021/10/28 05:32:22;;;;;;;;;8.67;8.67;;;;;19.02;49.29;101387.28;5056284;28;45958;-62
2021/10/28 05:34:48;;;;;;;;;6.33;6.33;;;;;19.04;48.94;101390.81;5084993;27;45327;-66
2021/10/28 05:37:14;;;;;;;;;7.67;7.67;;;;;19.03;49.18;101389.97;5097312;27;45357;-60
2021/10/28 05:39:40;;;;;;;;;10.33;8.00;;;;;19.02;49.27;101382.84;5097044;27;45599;-61
2021/10/28 05:42:05;;;;;;;;;8.67;8.00;;;;;19.03;49.24;101389.97;5096740;27;47285;-62
2021/10/28 05:44:31;;;;;;;;;8.00;8.00;;;;;19.02;49.22;101385.50;5096706;27;45429;-61
2021/10/28 05:46:56;;;;;;;;;6.67;6.33;;;;;19.02;48.99;101388.16;5097140;27;45477;-61
2021/10/28 05:49:22;;;;;;;;;8.00;7.00;;;;;19.04;49.31;101380.16;5097156;27;45307;-62
2021/10/28 05:51:48;;;;;;;;;11.33;9.33;;;;;19.03;49.09;101384.63;5096694;27;46238;-64
2021/10/28 05:54:13;;;;;;;;;11.33;9.33;;;;;19.05;48.68;101387.28;5096784;27;45334;-62
2021/10/28 05:56:39;;;;;;;;;9.00;7.00;;;;;19.04;48.85;101386.38;5096671;27;45305;-62
2021/10/28 05:59:05;;;;;;;;;7.00;6.67;;;;;19.04;48.77;101380.16;5097150;27;45982;-61
2021/10/28 06:01:30;;;;;;;;;11.00;9.67;;;;;19.03;49.06;101381.97;5096376;27;46910;-63
2021/10/28 06:03:56;;;;;;;;;8.33;7.33;;;;;19.04;49.01;101381.06;5096703;27;45363;-62
2021/10/28 06:06:21;;;;;;;;;7.33;7.33;;;;;19.04;48.81;101386.38;5096840;27;45308;-63
2021/10/28 06:08:47;;;;;;;;;7.67;7.67;;;;;19.04;48.86;101383.72;5096696;27;45516;-61
2021/10/28 06:11:15;;;;;;;;;7.33;7.33;;;;;19.05;49.05;101379.28;5096565;27;46890;-64
2021/10/28 06:13:48;;;;;;;;;7.33;6.67;;;;;19.04;48.85;101386.38;5096464;27;45218;-64
2021/10/28 06:16:14;;;;;;;;;8.33;8.33;;;;;19.03;49.14;101376.63;5096493;27;45929;-62
2021/10/28 06:18:41;;;;;;;;;9.33;8.33;;;;;19.05;49.07;101380.19;5096555;27;45501;-60
2021/10/28 06:21:08;;;;;;;;;10.33;8.67;;;;;19.06;49.00;101378.38;5096315;27;46542;-66
2021/10/28 06:23:34;;;;;;;;;8.33;7.67;;;;;19.06;48.89;101373.94;5096437;27;45264;-63
2021/10/28 06:26:00;;;;;;;;;7.33;6.33;;;;;19.05;48.90;101377.50;5096923;27;45622;-65
2021/10/28 06:28:25;;;;;;;;;8.00;7.00;;;;;19.02;49.04;101372.19;5096796;27;45389;-64
2021/10/28 06:30:50;;;;;;;;;9.67;7.00;;;;;19.06;49.09;101379.25;5096036;27;47039;-60
2021/10/28 06:33:21;;;;;;;;;8.00;7.00;;;;;19.06;48.97;101373.94;5096119;27;45429;-62
2021/10/28 06:35:47;;;;;;;;;8.67;8.67;;;;;19.06;49.27;101384.59;5098048;27;45318;-62
2021/10/28 06:38:13;;;;;;;;;8.00;6.50;;;;;19.07;49.01;101385.47;5100099;27;45651;-64
2021/10/28 06:40:39;;;;;;;;;9.67;9.00;;;;;19.06;48.99;101387.25;5099546;27;46112;-63
2021/10/28 06:43:04;;;;;;;;;6.00;6.00;;;;;19.05;48.98;101377.50;5099854;27;45478;-62
2021/10/28 06:45:30;;;;;;;;;9.00;9.00;;;;;19.07;48.81;101390.81;5099924;27;45352;-62
2021/10/28 06:47:57;;;;;;;;;7.33;7.33;;;;;19.06;49.12;101392.59;5099770;27;45389;-62
2021/10/28 06:50:27;;;;;;;;;8.00;8.00;;;;;19.06;48.89;101394.34;5099510;27;46255;-62
2021/10/28 06:53:20;;;;;;;;;10.33;9.33;;;;;19.03;49.04;101387.28;5099416;27;45395;-63
2021/10/28 06:55:55;;;;;;;;;7.33;7.00;;;;;19.05;48.62;101385.50;5099487;27;45389;-64
2021/10/28 07:03:48;;;;;;;;;9.67;8.00;;;;;19.04;48.56;101394.38;5099246;27;45425;-64
2021/10/28 07:06:19;;;;;;;;;10.33;9.67;;;;;19.05;48.51;101390.81;5099514;27;45352;-65
2021/10/28 07:08:47;;;;;;;;;9.33;9.00;;;;;19.04;48.46;101385.50;5099261;27;45389;-65
2021/10/28 07:11:18;;;;;;;;;11.67;8.67;;;;;19.04;48.67;101383.72;5099189;27;46369;-64
2021/10/28 07:13:47;;;;;;;;;8.67;8.33;;;;;19.04;48.36;101381.06;5099004;27;45336;-63
2021/10/28 07:16:37;;;;;;;;;8.00;8.00;;;;;19.04;48.45;101378.38;5098989;27;45356;-63
2021/10/28 08:28:45;;;;;;;;;7.00;6.67;;;;;19.01;48.21;101370.44;5097989;27;45420;-63
2021/10/28 08:31:12;;;;;;;;;11.67;10.33;;;;;19.00;47.97;101373.97;5113886;27;45357;-64
2021/10/28 08:33:38;;;;;;;;;9.00;8.00;;;;;19.00;48.23;101371.31;5097865;27;45465;-62
2021/10/28 08:36:08;;;;;;;;;12.33;10.00;;;;;19.00;48.26;101366.00;5097682;27;47242;-63
2021/10/28 08:38:39;;;;;;;;;14.67;9.00;;;;;18.99;48.14;101369.56;5097913;27;45454;-63
2021/10/28 08:41:09;;;;;;;;;13.33;10.33;;;;;19.01;48.02;101373.09;5097711;27;45589;-64
2021/10/28 08:43:36;;;;;;;;;11.00;10.67;;;;;18.99;48.14;101366.91;5097852;27;45440;-63
2021/10/28 08:46:06;;;;;;;;;10.33;10.33;;;;;19.00;48.04;101367.75;5097751;27;47079;-63
2021/10/28 08:48:34;;;;;;;;;10.67;9.33;;;;;19.00;47.95;101362.44;5097701;27;45312;-63
2021/10/28 08:51:25;;;;;;;;;11.67;9.00;;;;;19.00;48.13;101360.66;5098069;27;45719;-62
2021/10/28 08:54:30;;;;;;;;;12.33;10.33;;;;;19.00;48.16;101351.78;5098153;27;45316;-63
2021/10/28 08:57:09;;;;;;;;;9.33;9.33;;;;;19.00;47.99;101344.66;5097408;27;45946;-64
2021/10/28 08:59:44;;;;;;;;;10.67;10.67;;;;;19.00;48.22;101335.78;5097099;27;45545;-62
2021/10/28 09:24:35;;;;;;;;;12.00;10.67;;;;;18.97;48.14;101310.06;5097253;27;45377;-63
2021/10/28 09:44:05;;;;;;;;;8.00;8.00;;;;;18.97;48.09;101291.44;5096777;27;45510;-65
2021/10/28 09:46:51;;;;;;;;;9.67;9.67;;;;;18.97;48.11;101292.28;5096981;27;45442;-63
2021/10/28 09:52:18;;;;;;;;;10.00;9.67;;;;;18.96;47.85;101295.88;5096719;27;46131;-65
2021/10/28 10:00:11;;;;;;;;;9.00;8.00;;;;;18.97;48.16;101288.75;5097006;27;45353;-65
2021/10/28 10:05:11;;;;;;;;;10.00;9.33;;;;;18.96;48.22;101282.53;5096829;27;45337;-64
2021/10/28 10:07:39;;;;;;;;;9.67;7.67;;;;;18.97;47.98;101288.75;5096639;27;45389;-62
2021/10/28 10:10:05;;;;;;;;;8.00;8.00;;;;;18.96;48.26;101284.31;5097586;27;45327;-65
2021/10/28 10:12:32;;;;;;;;;12.33;10.00;;;;;18.95;47.95;101274.56;5100183;27;47093;-64
2021/10/28 10:15:00;;;;;;;;;12.00;9.00;;;;;18.97;48.22;101267.44;5100157;27;45473;-64
2021/10/28 10:17:25;;;;;;;;;8.33;8.00;;;;;18.96;48.17;101261.22;5100404;27;45168;-64
2021/10/28 10:19:52;;;;;;;;;12.00;9.33;;;;;18.98;48.16;101266.53;5100040;27;45404;-66
2021/10/28 11:23:32;;;;;;;;;7.67;7.67;;;;;19.09;48.86;101182.06;5098912;27;45393;-63
2021/10/28 11:26:25;;;;;;;;;10.00;10.00;;;;;19.10;48.88;101170.50;5099502;27;45362;-62
2021/10/28 11:29:10;;;;;;;;;9.67;9.00;;;;;19.10;48.63;101178.50;5099256;27;45173;-63
2021/10/28 12:14:44;;;;;;;;;10.33;9.00;;;;;19.17;48.81;101088.72;5098441;27;45389;-65
2021/10/28 12:45:06;;;;;;;;;9.33;8.33;;;;;19.16;48.63;101028.34;5095673;27;45478;-64
2021/10/28 13:38:05;;;;;;;;;8.00;8.00;;;;;19.16;48.86;100942.22;5033882;28;45426;-66
2021/10/28 14:18:52;;;;;;;;;8.33;7.00;;;;;19.16;48.69;100899.56;5056846;28;45677;-65
2021/10/28 14:21:27;;;;;;;;;9.67;9.67;;;;;19.18;48.85;100900.44;5056801;28;45407;-66
2021/10/28 15:28:38;;;;;;;;;8.33;6.67;;;;;19.17;48.76;100842.69;5099334;27;45499;-65
2021/10/28 15:36:21;;;;;;;;;6.67;6.67;;;;;19.16;48.76;100827.63;5098925;27;45393;-65
2021/10/28 15:38:53;;;;;;;;;8.33;6.67;;;;;19.17;48.48;100830.25;5099146;27;45317;-65
2021/10/28 16:22:06;;;;;;;;;8.67;6.00;;;;;19.18;48.63;100784.06;5098400;27;45317;-64
2021/10/28 16:24:34;;;;;;;;;7.00;6.00;;;;;19.18;48.70;100781.41;5098403;27;45766;-64
2021/10/28 16:27:01;;;;;;;;;7.67;6.33;;;;;19.19;48.52;100774.25;5098324;27;46413;-63
2021/10/28 16:29:28;;;;;;;;;6.67;6.67;;;;;19.18;48.64;100769.84;5098169;27;45310;-63
2021/10/28 16:31:54;;;;;;;;;6.33;6.33;;;;;19.19;48.89;100776.94;5097925;27;45294;-64
2021/10/28 16:34:20;;;;;;;;;7.33;6.00;;;;;19.19;48.80;100772.47;5098275;27;45241;-65
2021/10/28 16:36:47;;;;;;;;;8.33;7.00;;;;;19.20;48.76;100773.38;5097843;27;46283;-66
2021/10/28 16:39:14;;;;;;;;;7.00;6.67;;;;;19.19;48.52;100763.59;5098012;27;45330;-65
2021/10/28 16:41:42;;;;;;;;;6.00;6.00;;;;;19.19;48.70;100761.81;5097560;27;45379;-64
2021/10/28 16:44:08;;;;;;;;;5.67;5.67;;;;;19.21;48.54;100764.44;5098511;27;45466;-64
2021/10/28 16:46:36;;;;;;;;;9.33;7.00;;;;;19.21;48.51;100764.44;5097630;27;46251;-64
2021/10/28 16:49:02;;;;;;;;;6.33;6.00;;;;;19.19;48.58;100761.81;5097957;27;45356;-64
2021/10/28 16:51:27;;;;;;;;;10.00;8.00;;;;;19.20;48.71;100762.72;5097818;27;45400;-65
2021/10/28 16:53:53;;;;;;;;;6.00;6.00;;;;;19.20;48.99;100757.38;5097968;27;45282;-64
2021/10/28 16:56:19;;;;;;;;;4.00;3.00;;;;;19.20;48.63;100757.38;5097506;27;46212;-63
2021/10/28 16:58:44;;;;;;;;;6.00;5.00;;;;;19.20;48.62;100757.38;5097464;27;45430;-68
2021/10/28 17:01:10;;;;;;;;;6.00;5.00;;;;;19.20;48.59;100758.28;5097545;27;45337;-64
2021/10/28 17:03:36;;;;;;;;;7.67;5.00;;;;;19.20;48.55;100762.72;5097928;27;45867;-67
2021/10/28 17:06:02;;;;;;;;;7.00;7.00;;;;;19.20;48.46;100763.59;5097639;27;45424;-66
2021/10/28 17:08:29;;;;;;;;;8.00;6.00;;;;;19.19;48.41;100768.94;5097309;27;45415;-66
2021/10/28 17:10:55;;;;;;;;;8.00;7.00;;;;;19.18;48.42;100767.19;5097554;27;45737;-64
2021/10/28 17:13:21;;;;;;;;;7.33;5.67;;;;;19.20;48.58;100770.72;5097732;27;45536;-67
2021/10/28 17:15:46;;;;;;;;;7.00;7.00;;;;;19.20;48.70;100776.03;5096110;27;47284;-65
2021/10/28 17:18:11;;;;;;;;;6.67;6.67;;;;;19.20;48.66;100768.03;5097182;27;45270;-63
2021/10/28 17:20:37;;;;;;;;;7.67;7.00;;;;;19.20;48.57;100776.94;5097154;27;45396;-65
2021/10/28 17:23:04;;;;;;;;;6.67;6.67;;;;;19.20;48.78;100773.38;5097477;27;45324;-65
2021/10/28 17:25:36;;;;;;;;;8.33;6.33;;;;;19.19;48.46;100768.94;5097369;27;47169;-63
2021/10/28 17:28:02;;;;;;;;;8.00;6.67;;;;;19.20;48.46;100765.38;5096917;27;45315;-67
2021/10/28 17:30:27;;;;;;;;;7.00;6.00;;;;;19.19;48.70;100761.81;5097140;27;45328;-64
2021/10/28 17:32:52;;;;;;;;;10.33;7.00;;;;;19.19;48.70;100760.94;5097026;27;45388;-65
2021/10/28 17:35:18;;;;;;;;;7.00;6.00;;;;;19.20;48.50;100768.03;5097139;27;45622;-65
2021/10/28 17:37:43;;;;;;;;;7.33;7.33;;;;;19.20;48.51;100765.38;5097068;27;45210;-66
2021/10/28 17:40:09;;;;;;;;;7.33;6.67;;;;;19.21;48.68;100769.78;5096972;27;45281;-64
2021/10/28 17:42:35;;;;;;;;;7.33;6.67;;;;;19.20;48.62;100766.25;5097136;27;45309;-64
2021/10/28 17:45:02;;;;;;;;;7.67;6.67;;;;;19.20;48.73;100762.72;5096560;27;46915;-64
2021/10/28 17:47:28;;;;;;;;;11.67;7.67;;;;;19.20;48.82;100757.38;5096749;27;45384;-64
2021/10/28 17:49:55;;;;;;;;;7.33;7.00;;;;;19.20;48.61;100763.59;5097085;27;45363;-64
2021/10/28 17:52:21;;;;;;;;;7.67;7.33;;;;;19.20;48.59;100760.94;5097299;27;45179;-64
2021/10/28 17:54:46;;;;;;;;;6.00;6.00;;;;;19.20;48.84;100762.72;5096642;27;46173;-66
2021/10/28 17:57:13;;;;;;;;;10.33;8.00;;;;;19.21;48.73;100769.78;5096800;27;45376;-64
2021/10/28 17:59:40;;;;;;;;;6.33;6.33;;;;;19.21;48.77;100759.13;5096982;27;45502;-65
2021/10/28 18:02:05;;;;;;;;;7.00;6.67;;;;;19.23;48.80;100764.44;5096772;27;45356;-65
2021/10/28 18:04:31;;;;;;;;;6.67;6.00;;;;;19.22;49.10;100752.91;5096878;27;46221;-66
2021/10/28 18:06:57;;;;;;;;;9.33;6.33;;;;;19.23;48.72;100751.13;5096588;27;45353;-66
2021/10/28 18:09:24;;;;;;;;;7.67;6.00;;;;;19.21;48.80;100762.69;5096797;27;45327;-66
2021/10/28 18:11:51;;;;;;;;;8.00;8.00;;;;;19.22;48.86;100752.91;5096798;27;45494;-64
2021/10/28 18:14:18;;;;;;;;;7.67;7.67;;;;;19.22;49.12;100755.56;5096056;27;47016;-65
2021/10/28 18:16:43;;;;;;;;;10.33;7.33;;;;;19.23;48.93;100757.31;5096442;27;45472;-65
2021/10/28 18:19:09;;;;;;;;;7.67;7.00;;;;;19.23;49.16;100751.97;5096635;27;45381;-65
2021/10/28 18:21:37;;;;;;;;;8.00;6.67;;;;;19.23;48.91;100757.31;5096763;27;45235;-65
2021/10/28 18:24:03;;;;;;;;;7.33;7.33;;;;;19.23;49.13;100756.47;5096452;27;46370;-64
2021/10/28 18:26:29;;;;;;;;;6.67;6.67;;;;;19.23;48.95;100754.66;5096458;27;45419;-64
2021/10/28 18:28:58;;;;;;;;;6.33;6.33;;;;;19.24;49.07;100755.53;5096544;27;45459;-65
2021/10/28 18:31:27;;;;;;;;;8.33;7.00;;;;;19.25;48.97;100747.50;5113514;27;45481;-64
2021/10/28 18:33:52;;;;;;;;;11.00;7.00;;;;;19.23;49.19;100749.31;5098351;27;46088;-66
2021/10/28 18:36:18;;;;;;;;;14.00;8.67;;;;;19.25;49.01;100750.16;5099974;27;45476;-65
2021/10/28 18:38:45;;;;;;;;;10.33;7.00;;;;;19.24;48.93;100745.75;5099999;27;45296;-64
2021/10/28 18:41:16;;;;;;;;;9.67;7.67;;;;;19.24;49.17;100748.41;5099978;27;45360;-65
2021/10/28 18:43:42;;;;;;;;;7.67;7.67;;;;;19.24;49.17;100732.44;5099428;27;45529;-66
2021/10/28 18:46:08;;;;;;;;;7.33;7.33;;;;;19.24;48.92;100734.22;5099604;27;45458;-66
2021/10/28 18:48:34;;;;;;;;;8.67;7.33;;;;;19.24;49.01;100732.44;5099669;27;45343;-66
2021/10/28 18:50:59;;;;;;;;;9.33;7.33;;;;;19.24;49.00;100736.88;5099914;27;45263;-64
2021/10/28 18:53:25;;;;;;;;;7.00;6.00;;;;;19.24;49.01;100732.44;5099541;27;46272;-64
2021/10/28 18:55:52;;;;;;;;;7.00;7.00;;;;;19.24;49.35;100726.22;5099452;27;45332;-64
2021/10/28 18:58:17;;;;;;;;;8.00;7.33;;;;;19.23;49.28;100719.16;5099519;27;45307;-66
2021/10/28 19:00:43;;;;;;;;;9.67;9.00;;;;;19.25;49.18;100728.00;5099537;27;45780;-66
2021/10/28 19:03:08;;;;;;;;;8.33;8.33;;;;;19.25;49.54;100726.19;5099336;27;47060;-66
2021/10/28 19:05:34;;;;;;;;;7.33;7.33;;;;;19.25;49.14;100718.19;5115201;27;45333;-65
2021/10/28 19:07:59;;;;;;;;;6.67;6.33;;;;;19.26;49.39;100719.97;5099819;27;45402;-64
2021/10/28 19:10:25;;;;;;;;;11.33;9.67;;;;;19.25;49.23;100712.00;5099545;27;45164;-65
2021/10/28 19:12:50;;;;;;;;;7.67;7.67;;;;;19.26;49.37;100713.75;5099449;27;46123;-64
2021/10/28 19:15:18;;;;;;;;;11.33;8.33;;;;;19.26;49.01;100711.97;5099085;27;45366;-65
2021/10/28 19:17:50;;;;;;;;;6.00;6.00;;;;;19.26;49.09;100713.75;5099228;27;45351;-65
2021/10/28 19:20:16;;;;;;;;;11.67;8.00;;;;;19.25;49.23;100704.88;5099283;27;45436;-65
2021/10/28 19:22:42;;;;;;;;;8.00;8.00;;;;;19.25;49.36;100699.53;5098821;27;45384;-65
2021/10/28 19:25:08;;;;;;;;;11.33;8.33;;;;;19.24;49.13;100699.56;5098848;27;45368;-64
2021/10/28 19:27:35;;;;;;;;;8.33;8.33;;;;;19.24;49.15;100700.47;5099310;27;45278;-65
2021/10/28 19:32:48;;;;;;;;;6.33;5.33;;;;;19.25;49.23;100691.53;5035391;28;45367;-65
2021/10/28 19:35:15;;;;;;;;;10.33;9.33;;;;;19.24;49.19;100687.13;5035929;28;45492;-65
2021/10/28 19:37:56;;;;;;;;;11.00;9.00;;;;;19.23;49.40;100688.03;5035936;28;45336;-65
2021/10/28 19:48:13;;;;;;;;;11.67;9.00;;;;;19.24;49.33;100679.13;5035790;28;45495;-65
2021/10/28 19:50:39;;;;;;;;;9.00;8.00;;;;;19.25;49.35;100682.69;5035812;28;45510;-64
2021/10/28 19:53:04;;;;;;;;;8.33;6.67;;;;;19.24;49.30;100673.81;5035565;28;46159;-64
2021/10/28 19:55:30;;;;;;;;;8.67;8.33;;;;;19.26;49.56;100672.00;5035691;28;45381;-65
2021/10/28 19:57:56;;;;;;;;;9.00;8.33;;;;;19.26;49.43;100674.66;5035765;28;45281;-67
2021/10/28 20:01:00;;;;;;;;;8.33;8.33;;;;;19.28;49.61;100670.16;5035861;28;45506;-64
2021/10/28 20:13:07;;;;;;;;;14.00;10.67;;;;;19.28;49.36;100661.28;5035491;28;45260;-66
2021/10/28 20:21:53;;;;;;;;;9.00;8.00;;;;;19.27;49.27;100668.41;5098389;27;45214;-65
2021/10/28 20:24:20;;;;;;;;;8.67;8.00;;;;;19.26;49.39;100658.66;5098194;27;46236;-65
2021/10/28 20:26:46;;;;;;;;;9.00;8.00;;;;;19.27;49.33;100662.22;5097953;27;45397;-65
2021/10/28 20:29:11;;;;;;;;;8.33;8.33;;;;;19.27;49.19;100662.22;5098157;27;45388;-64
2021/10/28 20:31:37;;;;;;;;;9.00;8.67;;;;;19.27;49.15;100656.88;5098140;27;45392;-64
2021/10/28 20:38:56;;;;;;;;;8.33;8.00;;;;;19.27;49.30;100663.06;5098073;27;45459;-65
2021/10/28 20:41:24;;;;;;;;;8.00;8.00;;;;;19.26;49.25;100653.34;5098254;27;45524;-66
2021/10/28 20:43:49;;;;;;;;;11.33;9.33;;;;;19.26;49.27;100656.00;5097499;27;46354;-64
2021/10/28 20:46:20;;;;;;;;;9.67;9.67;;;;;19.26;49.16;100656.00;5097858;27;45494;-65